This is the latest recevied weather packets stored in our database for station/object K7DC. If no packets are shown the sender has not sent any weather packets the latest 10 day(s).
| Time | Temp. | Humidity | Pressure | Rain* | Wind** | Luminosity | Snow |
|---|---|---|---|---|---|---|---|
| 1788296838 | 37.78° C | 30% | 1016.5 hPa | 0 mm | - | 779 W/m² | - |
| 1788296533 | 37.78° C | 30% | 1016.4 hPa | 0 mm | - | 788 W/m² | - |
| 1788296229 | 37.22° C | 30% | 1016.4 hPa | 0 mm | - | 801 W/m² | - |
| 1788295923 | 37.22° C | 31% | 1016.5 hPa | 0 mm | - | 810 W/m² | - |
| 1788295642 | 36.67° C | 30% | 1016.6 hPa | 0 mm | - | 823 W/m² | - |
| 1788295315 | 37.78° C | 29% | 1016.9 hPa | 0 mm | - | 832 W/m² | - |
| 1788295014 | 37.22° C | 28% | 1017 hPa | 0 mm | - | 840 W/m² | - |
| 1788294709 | 36.67° C | 31% | 1016.9 hPa | 0 mm | - | 849 W/m² | - |
| 1788294408 | 37.22° C | 31% | 1016.9 hPa | 0 mm | - | 855 W/m² | - |
| 1788294105 | 37.22° C | 30% | 1017 hPa | 0 mm | - | 862 W/m² | - |
| 1788293800 | 36.11° C | 32% | 1016.9 hPa | 0 mm | - | 867 W/m² | - |
| 1788293500 | 36.67° C | 32% | 1017.2 hPa | 0 mm | - | 873 W/m² | - |
| 1788293200 | 36.11° C | 31% | 1017.2 hPa | 0 mm | - | 877 W/m² | - |
| 1788292894 | 36.67° C | 31% | 1017.2 hPa | 0 mm | - | 882 W/m² | - |
| 1788292592 | 37.22° C | 28% | 1017.4 hPa | 0 mm | - | 887 W/m² | - |
| 1788292292 | 37.22° C | 29% | 1017.4 hPa | 0 mm | - | 888 W/m² | - |
| 1788291988 | 37.22° C | 28% | 1017.4 hPa | 0 mm | - | 890 W/m² | - |
| 1788291683 | 36.67° C | 30% | 1017.6 hPa | 0 mm | - | 892 W/m² | - |
| 1788291379 | 37.22° C | 29% | 1017.6 hPa | 0 mm | - | 893 W/m² | - |
| 1788291078 | 36.67° C | 31% | 1017.7 hPa | 0 mm | - | 892 W/m² | - |
| 1788290774 | 36.11° C | 31% | 1017.6 hPa | 0 mm | - | 893 W/m² | - |
| 1788290486 | 35.56° C | 33% | 1017.6 hPa | 0 mm | - | 891 W/m² | - |
| 1788290165 | 35.56° C | 32% | 1017.7 hPa | 0 mm | - | 890 W/m² | - |
| 1788289861 | 35.56° C | 33% | 1017.8 hPa | 0 mm | - | 887 W/m² | - |
| 1788289556 | 34.44° C | 34% | 1017.7 hPa | 0 mm | - | 885 W/m² | - |
* Rain latest hour (hover to see other rain measurements)
** Current wind speed in m/s (hover to see current wind gust speed)